sensor_id;sensor_type;location;lat;lon;timestamp;temperature;humidity
16968;DHT22;64862;54.398;10.126;2024-03-07T00:07:46;6.20;99.90
16968;DHT22;64862;54.398;10.126;2024-03-07T00:17:50;6.20;99.90
16968;DHT22;64862;54.398;10.126;2024-03-07T00:27:52;6.10;99.90
16968;DHT22;64862;54.398;10.126;2024-03-07T00:37:56;6.10;99.90
16968;DHT22;64862;54.398;10.126;2024-03-07T00:47:58;6.00;99.90
16968;DHT22;64862;54.398;10.126;2024-03-07T00:58:02;6.00;99.90
16968;DHT22;64862;54.398;10.126;2024-03-07T01:08:05;6.00;99.90
16968;DHT22;64862;54.398;10.126;2024-03-07T01:18:09;5.90;99.90
16968;DHT22;64862;54.398;10.126;2024-03-07T01:28:11;5.90;99.90
16968;DHT22;64862;54.398;10.126;2024-03-07T01:38:16;6.00;99.90
16968;DHT22;64862;54.398;10.126;2024-03-07T01:48:25;5.90;99.90
16968;DHT22;64862;54.398;10.126;2024-03-07T01:58:29;5.80;99.90
16968;DHT22;64862;54.398;10.126;2024-03-07T02:08:31;5.80;99.90
16968;DHT22;64862;54.398;10.126;2024-03-07T02:18:35;5.70;99.90
16968;DHT22;64862;54.398;10.126;2024-03-07T02:28:39;5.60;99.90
16968;DHT22;64862;54.398;10.126;2024-03-07T02:38:41;5.50;99.90
16968;DHT22;64862;54.398;10.126;2024-03-07T02:48:44;5.50;99.90
16968;DHT22;64862;54.398;10.126;2024-03-07T02:58:46;5.30;99.90
16968;DHT22;64862;54.398;10.126;2024-03-07T03:08:50;5.30;99.90
16968;DHT22;64862;54.398;10.126;2024-03-07T03:18:54;5.30;99.90
16968;DHT22;64862;54.398;10.126;2024-03-07T03:28:58;5.40;99.90
16968;DHT22;64862;54.398;10.126;2024-03-07T03:39:00;5.40;99.90
16968;DHT22;64862;54.398;10.126;2024-03-07T03:49:03;5.40;99.90
16968;DHT22;64862;54.398;10.126;2024-03-07T03:59:06;5.40;99.90
16968;DHT22;64862;54.398;10.126;2024-03-07T04:09:11;5.40;99.90
16968;DHT22;64862;54.398;10.126;2024-03-07T04:19:16;5.40;99.90
16968;DHT22;64862;54.398;10.126;2024-03-07T04:29:22;5.40;99.90
16968;DHT22;64862;54.398;10.126;2024-03-07T04:39:24;5.50;99.90
16968;DHT22;64862;54.398;10.126;2024-03-07T04:49:33;5.40;99.90
16968;DHT22;64862;54.398;10.126;2024-03-07T04:59:35;5.30;99.90
16968;DHT22;64862;54.398;10.126;2024-03-07T05:09:45;5.00;99.90
16968;DHT22;64862;54.398;10.126;2024-03-07T05:19:53;5.10;99.90
16968;DHT22;64862;54.398;10.126;2024-03-07T05:29:57;5.20;99.90
16968;DHT22;64862;54.398;10.126;2024-03-07T05:39:59;5.30;99.90
16968;DHT22;64862;54.398;10.126;2024-03-07T05:50:06;5.40;99.90
16968;DHT22;64862;54.398;10.126;2024-03-07T06:00:10;5.40;99.90
16968;DHT22;64862;54.398;10.126;2024-03-07T06:10:16;5.40;99.90
16968;DHT22;64862;54.398;10.126;2024-03-07T06:20:18;5.40;99.90
16968;DHT22;64862;54.398;10.126;2024-03-07T06:30:26;5.40;99.90
16968;DHT22;64862;54.398;10.126;2024-03-07T06:40:28;5.50;99.90
16968;DHT22;64862;54.398;10.126;2024-03-07T06:50:32;5.60;99.90
16968;DHT22;64862;54.398;10.126;2024-03-07T07:00:34;5.50;99.90
16968;DHT22;64862;54.398;10.126;2024-03-07T07:10:39;5.70;99.90
16968;DHT22;64862;54.398;10.126;2024-03-07T07:20:43;5.60;99.90
16968;DHT22;64862;54.398;10.126;2024-03-07T07:30:46;5.70;99.90
16968;DHT22;64862;54.398;10.126;2024-03-07T07:40:49;5.70;99.90
16968;DHT22;64862;54.398;10.126;2024-03-07T07:50:52;5.80;99.90
16968;DHT22;64862;54.398;10.126;2024-03-07T08:00:55;5.90;99.90
16968;DHT22;64862;54.398;10.126;2024-03-07T08:10:59;5.90;99.90
16968;DHT22;64862;54.398;10.126;2024-03-07T08:21:02;5.90;99.90
16968;DHT22;64862;54.398;10.126;2024-03-07T08:31:06;6.00;99.90
16968;DHT22;64862;54.398;10.126;2024-03-07T08:41:10;6.00;99.90
16968;DHT22;64862;54.398;10.126;2024-03-07T08:51:15;6.00;99.90
16968;DHT22;64862;54.398;10.126;2024-03-07T09:01:18;6.00;99.90
16968;DHT22;64862;54.398;10.126;2024-03-07T09:11:22;5.90;99.90
16968;DHT22;64862;54.398;10.126;2024-03-07T09:21:24;6.00;99.90
16968;DHT22;64862;54.398;10.126;2024-03-07T09:31:29;6.00;99.90
16968;DHT22;64862;54.398;10.126;2024-03-07T09:41:32;6.10;99.90
16968;DHT22;64862;54.398;10.126;2024-03-07T09:51:36;6.10;99.90
16968;DHT22;64862;54.398;10.126;2024-03-07T10:01:39;6.20;99.90
16968;DHT22;64862;54.398;10.126;2024-03-07T10:11:44;6.30;99.90
16968;DHT22;64862;54.398;10.126;2024-03-07T10:21:46;6.30;99.90
16968;DHT22;64862;54.398;10.126;2024-03-07T10:31:49;6.30;99.90
16968;DHT22;64862;54.398;10.126;2024-03-07T10:41:51;6.40;99.90
16968;DHT22;64862;54.398;10.126;2024-03-07T10:52:02;6.50;99.90
16968;DHT22;64862;54.398;10.126;2024-03-07T11:02:20;6.50;99.90
16968;DHT22;64862;54.398;10.126;2024-03-07T11:12:29;6.50;99.90
16968;DHT22;64862;54.398;10.126;2024-03-07T11:22:31;6.60;99.90
16968;DHT22;64862;54.398;10.126;2024-03-07T11:32:38;6.80;99.90
16968;DHT22;64862;54.398;10.126;2024-03-07T11:42:43;6.90;99.90
16968;DHT22;64862;54.398;10.126;2024-03-07T11:52:48;7.00;99.90
16968;DHT22;64862;54.398;10.126;2024-03-07T12:02:54;7.00;99.90
16968;DHT22;64862;54.398;10.126;2024-03-07T12:12:57;6.90;99.90
16968;DHT22;64862;54.398;10.126;2024-03-07T12:23:02;7.10;99.90
16968;DHT22;64862;54.398;10.126;2024-03-07T12:33:07;7.10;99.90
16968;DHT22;64862;54.398;10.126;2024-03-07T12:43:17;7.10;99.90
16968;DHT22;64862;54.398;10.126;2024-03-07T12:53:22;7.00;99.90
16968;DHT22;64862;54.398;10.126;2024-03-07T13:03:27;7.20;99.90
16968;DHT22;64862;54.398;10.126;2024-03-07T13:13:32;7.10;99.90
16968;DHT22;64862;54.398;10.126;2024-03-07T13:23:34;7.20;99.90
16968;DHT22;64862;54.398;10.126;2024-03-07T13:33:41;7.20;99.90
16968;DHT22;64862;54.398;10.126;2024-03-07T13:43:43;7.20;99.90
16968;DHT22;64862;54.398;10.126;2024-03-07T13:53:47;7.30;99.90
16968;DHT22;64862;54.398;10.126;2024-03-07T14:04:15;7.30;99.90
16968;DHT22;64862;54.398;10.126;2024-03-07T14:15:16;7.20;99.90
16968;DHT22;64862;54.398;10.126;2024-03-07T14:25:39;7.20;99.90
16968;DHT22;64862;54.398;10.126;2024-03-07T14:36:05;7.20;99.90
16968;DHT22;64862;54.398;10.126;2024-03-07T14:46:08;7.10;99.90
16968;DHT22;64862;54.398;10.126;2024-03-07T14:56:14;7.20;99.90
16968;DHT22;64862;54.398;10.126;2024-03-07T15:06:16;7.20;99.90
16968;DHT22;64862;54.398;10.126;2024-03-07T15:16:23;7.20;99.90
16968;DHT22;64862;54.398;10.126;2024-03-07T15:26:25;7.20;99.90
16968;DHT22;64862;54.398;10.126;2024-03-07T15:36:29;7.20;99.90
16968;DHT22;64862;54.398;10.126;2024-03-07T15:46:31;7.00;99.90
16968;DHT22;64862;54.398;10.126;2024-03-07T15:56:34;6.90;99.90
16968;DHT22;64862;54.398;10.126;2024-03-07T16:06:37;6.80;99.90
16968;DHT22;64862;54.398;10.126;2024-03-07T16:16:41;6.80;99.90
16968;DHT22;64862;54.398;10.126;2024-03-07T16:26:43;6.70;99.90
16968;DHT22;64862;54.398;10.126;2024-03-07T16:36:47;6.50;99.90
16968;DHT22;64862;54.398;10.126;2024-03-07T16:46:49;6.50;99.90
16968;DHT22;64862;54.398;10.126;2024-03-07T16:56:52;6.40;99.90
16968;DHT22;64862;54.398;10.126;2024-03-07T17:06:55;6.30;99.90
16968;DHT22;64862;54.398;10.126;2024-03-07T17:16:59;6.30;99.90
16968;DHT22;64862;54.398;10.126;2024-03-07T17:27:01;6.20;99.90
16968;DHT22;64862;54.398;10.126;2024-03-07T17:37:05;6.10;99.90
16968;DHT22;64862;54.398;10.126;2024-03-07T17:47:07;6.10;99.90
16968;DHT22;64862;54.398;10.126;2024-03-07T17:57:13;6.00;99.90
16968;DHT22;64862;54.398;10.126;2024-03-07T18:07:16;5.90;99.90
16968;DHT22;64862;54.398;10.126;2024-03-07T18:17:20;5.90;99.90
16968;DHT22;64862;54.398;10.126;2024-03-07T18:27:23;5.90;99.90
16968;DHT22;64862;54.398;10.126;2024-03-07T18:37:30;5.80;99.90
16968;DHT22;64862;54.398;10.126;2024-03-07T18:47:32;5.80;99.90
16968;DHT22;64862;54.398;10.126;2024-03-07T18:57:36;5.70;99.90
16968;DHT22;64862;54.398;10.126;2024-03-07T19:07:38;5.60;99.90
16968;DHT22;64862;54.398;10.126;2024-03-07T19:17:41;5.60;99.90
16968;DHT22;64862;54.398;10.126;2024-03-07T19:27:47;5.60;99.90
16968;DHT22;64862;54.398;10.126;2024-03-07T19:37:51;5.70;99.90
16968;DHT22;64862;54.398;10.126;2024-03-07T19:47:53;5.60;99.90
16968;DHT22;64862;54.398;10.126;2024-03-07T19:57:57;5.70;99.90
16968;DHT22;64862;54.398;10.126;2024-03-07T20:07:59;5.70;99.90
16968;DHT22;64862;54.398;10.126;2024-03-07T20:18:03;5.70;99.90
16968;DHT22;64862;54.398;10.126;2024-03-07T20:28:05;5.60;99.90
16968;DHT22;64862;54.398;10.126;2024-03-07T20:38:09;5.60;99.90
16968;DHT22;64862;54.398;10.126;2024-03-07T20:48:15;5.50;99.90
16968;DHT22;64862;54.398;10.126;2024-03-07T20:58:18;5.50;99.90
16968;DHT22;64862;54.398;10.126;2024-03-07T21:08:21;5.50;99.90
16968;DHT22;64862;54.398;10.126;2024-03-07T21:18:24;5.50;99.90
16968;DHT22;64862;54.398;10.126;2024-03-07T21:28:27;5.40;99.90
16968;DHT22;64862;54.398;10.126;2024-03-07T21:38:34;5.60;99.90
16968;DHT22;64862;54.398;10.126;2024-03-07T21:48:36;5.50;99.90
16968;DHT22;64862;54.398;10.126;2024-03-07T21:58:41;5.40;99.90
16968;DHT22;64862;54.398;10.126;2024-03-07T22:08:43;5.30;99.90
16968;DHT22;64862;54.398;10.126;2024-03-07T22:18:48;5.20;99.90
16968;DHT22;64862;54.398;10.126;2024-03-07T22:28:51;5.10;99.90
16968;DHT22;64862;54.398;10.126;2024-03-07T22:38:54;5.00;99.90
16968;DHT22;64862;54.398;10.126;2024-03-07T22:48:56;5.00;99.90
16968;DHT22;64862;54.398;10.126;2024-03-07T22:59:00;4.90;99.90
16968;DHT22;64862;54.398;10.126;2024-03-07T23:09:03;4.90;99.90
16968;DHT22;64862;54.398;10.126;2024-03-07T23:19:06;4.80;99.90
16968;DHT22;64862;54.398;10.126;2024-03-07T23:29:08;4.80;99.90
16968;DHT22;64862;54.398;10.126;2024-03-07T23:39:13;4.80;99.90
16968;DHT22;64862;54.398;10.126;2024-03-07T23:49:17;4.70;99.90
16968;DHT22;64862;54.398;10.126;2024-03-07T23:59:21;4.60;99.90
